Time;durP1;ratioP1;P1;durP2;ratioP2;P2;SDS_P1;SDS_P2;PMS_P1;PMS_P2;Temp;Humidity;BMP_temperature;BMP_pressure;BME280_temperature;BME280_humidity;BME280_pressure;Samples;Min_cycle;Max_cycle;Signal;HPM_P1;HPM_P2
2022/11/23 00:00:00;;;;;;;3.22;2.33;;;8.70;99.90;;;;;;5078791;28;20036;-79
2022/11/23 00:02:26;;;;;;;3.22;2.90;;;8.70;99.90;;;;;;5080924;28;20112;-79
2022/11/23 00:04:51;;;;;;;2.90;2.33;;;8.70;99.90;;;;;;5076471;28;20397;-79
2022/11/23 00:07:17;;;;;;;2.33;2.08;;;8.60;99.90;;;;;;5091479;28;20500;-79
2022/11/23 00:09:43;;;;;;;2.78;2.05;;;8.70;99.90;;;;;;5088907;28;20518;-79
2022/11/23 00:12:08;;;;;;;3.97;2.10;;;8.70;99.90;;;;;;5070488;28;20059;-79
2022/11/23 00:14:34;;;;;;;2.42;2.17;;;8.70;99.90;;;;;;5080320;28;20039;-79
2022/11/23 00:17:00;;;;;;;3.08;2.03;;;8.70;99.90;;;;;;5070940;28;20020;-79
2022/11/23 00:19:26;;;;;;;1.88;1.67;;;8.60;99.90;;;;;;5078130;28;20080;-81
2022/11/23 00:21:51;;;;;;;1.98;1.40;;;8.70;99.90;;;;;;5069060;28;20033;-79
2022/11/23 00:24:17;;;;;;;1.70;1.60;;;8.70;99.90;;;;;;5074666;28;20135;-79
2022/11/23 00:26:43;;;;;;;2.03;1.77;;;8.70;99.90;;;;;;5077339;28;20027;-79
2022/11/23 00:29:08;;;;;;;1.90;1.70;;;8.70;99.90;;;;;;5088503;28;20111;-79
2022/11/23 00:31:34;;;;;;;1.58;1.45;;;8.70;99.90;;;;;;5069644;28;20024;-79
2022/11/23 00:34:01;;;;;;;1.67;1.58;;;8.70;99.90;;;;;;5070069;28;20040;-79
2022/11/23 00:36:27;;;;;;;2.00;1.80;;;8.70;99.90;;;;;;5093219;28;20020;-82
2022/11/23 00:38:53;;;;;;;1.80;1.50;;;8.70;99.90;;;;;;5069178;28;20036;-79
2022/11/23 00:41:22;;;;;;;2.00;1.48;;;8.70;99.90;;;;;;5080755;28;20024;-81
2022/11/23 00:43:49;;;;;;;1.67;1.58;;;8.70;99.90;;;;;;5069401;28;20032;-79
2022/11/23 00:46:23;;;;;;;1.58;1.40;;;8.70;99.90;;;;;;5079173;28;20134;-79
2022/11/23 00:48:51;;;;;;;2.05;1.60;;;8.70;99.90;;;;;;5084889;28;20016;-79
2022/11/23 00:51:26;;;;;;;1.98;1.50;;;8.70;99.90;;;;;;5088563;28;20032;-79
2022/11/23 00:53:51;;;;;;;1.52;1.42;;;8.70;99.90;;;;;;5069346;28;20033;-79
2022/11/23 00:56:18;;;;;;;3.15;1.58;;;8.70;99.90;;;;;;5076941;28;20714;-79
2022/11/23 00:58:49;;;;;;;2.10;1.50;;;8.70;99.90;;;;;;5068813;28;20032;-79
2022/11/23 01:01:16;;;;;;;2.17;1.60;;;8.70;99.90;;;;;;5074404;28;20029;-78
2022/11/23 01:03:47;;;;;;;2.35;1.45;;;8.80;99.90;;;;;;5069371;28;20032;-78
2022/11/23 01:06:16;;;;;;;2.42;1.58;;;8.70;99.90;;;;;;5079388;28;20035;-79
2022/11/23 01:08:42;;;;;;;1.42;1.33;;;8.80;99.90;;;;;;5082640;28;20028;-79
2022/11/23 01:11:10;;;;;;;1.98;1.65;;;8.80;99.90;;;;;;5072508;28;20033;-81
2022/11/23 01:13:37;;;;;;;4.05;1.70;;;8.70;99.90;;;;;;5067372;28;20032;-79
2022/11/23 01:16:03;;;;;;;1.42;1.30;;;8.80;99.90;;;;;;5071809;28;20036;-79
2022/11/23 01:18:29;;;;;;;1.52;1.30;;;8.80;99.90;;;;;;5068816;28;20027;-78
2022/11/23 01:20:55;;;;;;;1.35;1.25;;;8.80;99.90;;;;;;5069969;28;20046;-79
2022/11/23 01:23:20;;;;;;;1.55;1.40;;;8.80;99.90;;;;;;5068369;28;20494;-81
2022/11/23 01:25:46;;;;;;;3.15;1.67;;;8.80;99.90;;;;;;5028933;28;1512497;-78
2022/11/23 01:28:12;;;;;;;1.77;1.67;;;8.90;99.90;;;;;;5089070;28;20388;-79
2022/11/23 01:30:38;;;;;;;1.70;1.40;;;8.90;99.90;;;;;;5089908;28;20024;-79
2022/11/23 01:33:04;;;;;;;2.60;1.45;;;8.90;99.90;;;;;;5070256;28;20078;-79
2022/11/23 01:35:30;;;;;;;1.52;1.42;;;8.90;99.90;;;;;;5087074;28;20527;-79
2022/11/23 01:37:56;;;;;;;1.65;1.50;;;8.90;99.90;;;;;;5069162;28;20094;-79
2022/11/23 01:40:22;;;;;;;1.30;1.20;;;8.90;99.90;;;;;;5077827;28;20031;-79
2022/11/23 01:42:58;;;;;;;1.40;1.30;;;8.90;99.90;;;;;;5069254;28;20111;-81
2022/11/23 01:45:39;;;;;;;1.55;1.45;;;9.00;99.90;;;;;;5076825;28;20117;-81
2022/11/23 01:48:15;;;;;;;1.53;1.43;;;9.10;99.90;;;;;;5079033;28;20023;-82
2022/11/23 01:50:42;;;;;;;1.35;1.25;;;9.00;99.90;;;;;;5085374;28;20017;-79
2022/11/23 01:53:08;;;;;;;1.85;1.00;;;9.20;99.90;;;;;;5069098;28;20029;-79
2022/11/23 01:55:34;;;;;;;2.55;1.50;;;9.10;99.90;;;;;;5076745;28;20457;-79
2022/11/23 01:58:01;;;;;;;1.70;1.25;;;9.20;99.90;;;;;;5086222;28;20043;-79
2022/11/23 02:00:27;;;;;;;1.00;0.90;;;9.20;99.90;;;;;;5083293;28;20266;-79
2022/11/23 02:02:57;;;;;;;1.15;0.88;;;9.20;99.90;;;;;;5074623;28;20039;-78
2022/11/23 02:05:34;;;;;;;1.05;0.90;;;9.30;99.90;;;;;;5070375;28;20023;-79
2022/11/23 02:08:01;;;;;;;1.25;1.13;;;9.30;99.90;;;;;;5070237;28;20037;-81
2022/11/23 02:10:29;;;;;;;0.73;0.73;;;9.40;99.90;;;;;;5077049;28;20045;-79
2022/11/23 02:12:55;;;;;;;1.70;1.10;;;9.30;99.90;;;;;;5072766;28;20064;-79
2022/11/23 02:15:20;;;;;;;0.80;0.80;;;9.30;99.90;;;;;;5073737;28;20024;-79
2022/11/23 02:17:46;;;;;;;1.02;1.00;;;9.30;99.90;;;;;;5083658;28;20028;-79
2022/11/23 02:20:14;;;;;;;1.38;1.00;;;9.30;99.90;;;;;;5076315;28;20153;-79
2022/11/23 02:22:58;;;;;;;1.05;0.80;;;9.40;99.90;;;;;;5079680;28;20028;-81
2022/11/23 02:25:41;;;;;;;1.50;0.90;;;9.40;99.90;;;;;;5078363;28;20088;-79
2022/11/23 02:28:09;;;;;;;0.70;0.70;;;9.30;99.90;;;;;;5092409;28;20035;-81
2022/11/23 02:30:37;;;;;;;1.00;0.85;;;9.40;99.90;;;;;;5100492;28;20125;-81
2022/11/23 02:33:06;;;;;;;0.80;0.80;;;9.40;99.90;;;;;;5072461;28;20024;-79
2022/11/23 02:35:32;;;;;;;1.05;0.90;;;9.40;99.90;;;;;;5083157;28;20110;-79
2022/11/23 02:38:05;;;;;;;0.70;0.70;;;9.50;99.90;;;;;;5072611;28;20032;-79
2022/11/23 02:40:33;;;;;;;1.17;1.02;;;9.40;99.90;;;;;;5077269;28;20032;-79
2022/11/23 02:43:00;;;;;;;1.15;0.90;;;9.40;99.90;;;;;;5070999;28;20036;-79
2022/11/23 02:45:51;;;;;;;1.98;0.95;;;9.50;99.90;;;;;;5078317;28;20027;-79
2022/11/23 02:48:18;;;;;;;;;;;9.40;99.90;;;;;;5073241;28;20086;-79
2022/11/23 02:50:44;;;;;;;1.08;0.77;;;9.40;99.90;;;;;;5074681;28;20003;-80
2022/11/23 02:53:10;;;;;;;1.42;0.70;;;9.40;99.90;;;;;;5072471;28;20020;-79
2022/11/23 02:55:36;;;;;;;2.28;0.95;;;9.40;99.90;;;;;;5073194;28;20089;-79
2022/11/23 02:58:03;;;;;;;1.10;0.88;;;9.40;99.90;;;;;;5072120;28;20028;-80
2022/11/23 03:00:29;;;;;;;1.00;0.90;;;9.30;99.90;;;;;;5081449;28;20019;-80
2022/11/23 03:02:55;;;;;;;2.45;0.98;;;9.40;99.90;;;;;;5088215;28;20025;-79
2022/11/23 03:05:21;;;;;;;0.70;0.70;;;9.30;99.90;;;;;;5077742;28;20023;-81
2022/11/23 03:07:47;;;;;;;0.93;0.70;;;9.40;99.90;;;;;;5089129;28;20043;-81
2022/11/23 03:10:12;;;;;;;0.80;0.77;;;9.50;99.90;;;;;;5088170;28;20387;-81
2022/11/23 03:12:38;;;;;;;0.73;0.73;;;9.50;99.90;;;;;;5079867;28;20218;-81
2022/11/23 03:15:04;;;;;;;0.95;0.82;;;9.50;99.90;;;;;;5071897;28;20031;-81
2022/11/23 03:17:31;;;;;;;1.20;0.90;;;9.50;99.90;;;;;;5079851;28;20029;-81
2022/11/23 03:19:56;;;;;;;1.35;0.60;;;9.50;99.90;;;;;;5071367;28;20017;-82
2022/11/23 03:22:22;;;;;;;2.35;0.75;;;9.50;99.90;;;;;;5078445;28;20035;-82
2022/11/23 03:24:48;;;;;;;0.70;0.70;;;9.50;99.90;;;;;;5071159;28;20051;-82
2022/11/23 03:27:14;;;;;;;2.03;1.00;;;9.60;99.90;;;;;;5087978;28;20455;-82
2022/11/23 03:29:39;;;;;;;2.05;1.00;;;9.60;99.90;;;;;;5091777;28;20112;-81
2022/11/23 03:32:05;;;;;;;0.75;0.70;;;9.60;99.90;;;;;;5084221;28;20016;-82
2022/11/23 03:34:31;;;;;;;1.13;0.90;;;9.60;99.90;;;;;;5071042;28;20706;-82
2022/11/23 03:36:56;;;;;;;0.90;0.70;;;9.60;99.90;;;;;;5074140;28;20452;-82
2022/11/23 03:39:22;;;;;;;0.82;0.73;;;9.60;99.90;;;;;;5075748;28;20032;-82
2022/11/23 03:41:48;;;;;;;0.90;0.70;;;9.60;99.90;;;;;;5080436;28;20039;-82
2022/11/23 03:44:13;;;;;;;0.52;0.52;;;9.60;99.90;;;;;;5071126;28;20103;-82
2022/11/23 03:46:39;;;;;;;0.70;0.70;;;9.70;99.90;;;;;;5071812;28;20452;-82
2022/11/23 03:49:05;;;;;;;0.80;0.77;;;9.70;99.90;;;;;;5088923;28;20024;-82
2022/11/23 03:51:30;;;;;;;1.00;0.80;;;9.70;99.90;;;;;;5101890;28;20016;-82
2022/11/23 03:53:56;;;;;;;0.50;0.50;;;9.60;99.90;;;;;;5074986;28;20394;-82
2022/11/23 03:56:22;;;;;;;0.63;0.57;;;9.70;99.90;;;;;;5089054;28;20401;-82
2022/11/23 03:58:47;;;;;;;2.75;0.70;;;9.70;99.90;;;;;;5074619;28;20379;-82
2022/11/23 04:01:13;;;;;;;1.05;0.50;;;9.80;99.90;;;;;;5085410;28;20398;-82
2022/11/23 04:03:39;;;;;;;1.10;0.60;;;9.80;99.90;;;;;;5074316;28;20312;-82
2022/11/23 04:06:04;;;;;;;1.40;0.75;;;9.90;99.90;;;;;;5076897;28;20044;-82
2022/11/23 04:08:30;;;;;;;1.40;0.80;;;9.80;99.90;;;;;;5072399;28;20029;-82
2022/11/23 04:10:57;;;;;;;1.02;0.70;;;9.80;99.90;;;;;;5075080;28;20103;-82
2022/11/23 04:13:24;;;;;;;0.90;0.65;;;9.90;99.90;;;;;;5072074;28;20189;-81
2022/11/23 04:15:50;;;;;;;0.88;0.60;;;9.90;99.90;;;;;;5077347;28;20011;-82
2022/11/23 04:18:15;;;;;;;1.05;0.68;;;9.90;99.90;;;;;;5074319;28;20400;-82
2022/11/23 04:20:41;;;;;;;0.60;0.60;;;9.80;99.90;;;;;;5074244;28;20028;-82
2022/11/23 04:23:07;;;;;;;0.73;0.60;;;9.80;99.90;;;;;;5074767;28;20437;-81
2022/11/23 04:25:33;;;;;;;1.20;1.10;;;9.90;99.90;;;;;;5068785;28;20474;-82
2022/11/23 04:27:58;;;;;;;1.20;0.80;;;9.90;99.90;;;;;;5089519;28;20505;-82
2022/11/23 04:30:24;;;;;;;2.42;0.90;;;9.90;99.90;;;;;;5091072;28;20048;-82
2022/11/23 04:32:50;;;;;;;1.02;0.45;;;9.90;99.90;;;;;;5072386;28;20047;-82
2022/11/23 04:35:16;;;;;;;0.57;0.40;;;9.90;99.90;;;;;;5070802;28;20402;-83
2022/11/23 04:37:42;;;;;;;1.65;0.40;;;9.80;99.90;;;;;;5083854;28;20024;-83
2022/11/23 04:40:08;;;;;;;0.52;0.52;;;9.90;99.90;;;;;;5070359;28;20029;-83
2022/11/23 04:42:34;;;;;;;0.40;0.40;;;9.90;99.90;;;;;;5080265;28;20059;-82
2022/11/23 04:45:00;;;;;;;0.50;0.50;;;9.80;99.90;;;;;;5070407;28;20048;-82
2022/11/23 04:47:26;;;;;;;0.55;0.55;;;9.90;99.90;;;;;;5083228;28;20105;-82
2022/11/23 04:49:51;;;;;;;0.90;0.57;;;9.90;99.90;;;;;;5089190;28;20024;-82
2022/11/23 04:52:17;;;;;;;1.60;0.55;;;9.90;99.90;;;;;;5096120;28;20090;-81
2022/11/23 04:54:43;;;;;;;0.80;0.60;;;9.90;99.90;;;;;;5070242;28;20040;-81
2022/11/23 04:57:08;;;;;;;0.47;0.40;;;10.00;99.90;;;;;;5086173;28;20559;-81
2022/11/23 04:59:34;;;;;;;0.60;0.50;;;9.90;99.90;;;;;;5068446;28;20055;-81
2022/11/23 05:02:00;;;;;;;0.50;0.50;;;10.00;99.90;;;;;;5076558;28;20532;-81
2022/11/23 05:04:26;;;;;;;1.33;0.45;;;10.00;99.90;;;;;;5069677;28;20078;-81
2022/11/23 05:06:51;;;;;;;0.93;0.50;;;10.00;99.90;;;;;;5074870;28;20390;-81
2022/11/23 05:09:17;;;;;;;1.27;0.55;;;10.00;99.90;;;;;;5071160;28;20604;-81
2022/11/23 05:11:43;;;;;;;0.65;0.50;;;10.00;99.90;;;;;;5073628;28;20020;-81
2022/11/23 05:14:09;;;;;;;0.55;0.55;;;10.00;99.90;;;;;;5070281;28;20555;-81
2022/11/23 05:16:35;;;;;;;0.73;0.52;;;10.00;99.90;;;;;;5070939;28;20566;-82
2022/11/23 05:19:00;;;;;;;0.77;0.70;;;10.00;99.90;;;;;;5070097;28;20082;-82
2022/11/23 05:21:27;;;;;;;1.05;0.50;;;10.00;99.90;;;;;;5071817;28;20119;-82
2022/11/23 05:23:52;;;;;;;0.90;0.70;;;10.00;99.90;;;;;;5070033;28;20116;-82
2022/11/23 05:26:18;;;;;;;0.88;0.52;;;10.00;99.90;;;;;;5077542;28;20122;-82
2022/11/23 05:28:44;;;;;;;0.40;0.40;;;10.00;99.90;;;;;;5089470;28;20017;-82
2022/11/23 05:31:10;;;;;;;0.47;0.47;;;10.00;99.90;;;;;;5071805;28;20254;-82
2022/11/23 05:33:35;;;;;;;0.55;0.40;;;10.00;99.90;;;;;;5079165;28;20510;-82
2022/11/23 05:36:01;;;;;;;0.70;0.70;;;10.00;99.90;;;;;;5070022;28;20040;-82
2022/11/23 05:38:27;;;;;;;0.75;0.60;;;9.90;99.90;;;;;;5089498;28;20028;-82
2022/11/23 05:40:53;;;;;;;1.10;0.65;;;10.00;99.90;;;;;;5069705;28;20032;-82
2022/11/23 05:43:18;;;;;;;0.50;0.50;;;10.00;99.90;;;;;;5078011;28;20032;-81
2022/11/23 05:45:44;;;;;;;0.77;0.50;;;10.00;99.90;;;;;;5069687;28;20041;-81
2022/11/23 05:48:10;;;;;;;0.70;0.60;;;10.00;99.90;;;;;;5094883;28;20052;-81
2022/11/23 05:50:35;;;;;;;0.60;0.60;;;10.00;99.90;;;;;;5089677;28;20017;-81
2022/11/23 05:53:01;;;;;;;0.80;0.50;;;9.90;99.90;;;;;;5079564;28;20028;-82
2022/11/23 05:55:27;;;;;;;0.40;0.40;;;9.90;99.90;;;;;;5069248;28;20432;-82
2022/11/23 05:57:53;;;;;;;0.50;0.50;;;10.00;99.90;;;;;;5072673;28;20502;-81
2022/11/23 06:00:19;;;;;;;0.60;0.50;;;10.00;99.90;;;;;;5073172;28;20032;-81
2022/11/23 06:02:45;;;;;;;0.60;0.60;;;10.00;99.90;;;;;;5075797;28;20509;-81
2022/11/23 06:05:11;;;;;;;0.60;0.60;;;10.00;99.90;;;;;;5073098;28;20020;-81
2022/11/23 06:07:37;;;;;;;0.50;0.50;;;9.90;99.90;;;;;;5076909;28;20024;-82
2022/11/23 06:10:05;;;;;;;0.70;0.60;;;10.00;99.90;;;;;;5074713;28;20559;-81
2022/11/23 06:12:31;;;;;;;0.50;0.50;;;10.00;99.90;;;;;;5074067;28;20028;-82
2022/11/23 06:14:56;;;;;;;0.50;0.50;;;9.90;99.90;;;;;;5072885;28;20493;-82
2022/11/23 06:17:22;;;;;;;0.63;0.60;;;10.00;99.90;;;;;;5082189;28;20031;-82
2022/11/23 06:19:48;;;;;;;0.50;0.50;;;9.90;99.90;;;;;;5075763;28;20052;-82
2022/11/23 06:22:14;;;;;;;0.85;0.68;;;10.00;99.90;;;;;;5077423;28;20505;-82
2022/11/23 06:24:41;;;;;;;0.50;0.50;;;10.00;99.90;;;;;;5071243;28;20518;-81
2022/11/23 06:27:06;;;;;;;0.60;0.60;;;10.00;99.90;;;;;;5083215;28;20167;-81
2022/11/23 06:29:32;;;;;;;0.50;0.50;;;10.00;99.90;;;;;;5076370;28;20605;-81
2022/11/23 06:31:58;;;;;;;0.57;0.40;;;10.00;99.90;;;;;;5077898;28;20382;-81
2022/11/23 06:34:23;;;;;;;0.52;0.50;;;10.00;99.90;;;;;;5075895;28;20383;-81
2022/11/23 06:36:49;;;;;;;0.60;0.60;;;10.00;99.90;;;;;;5076409;28;20126;-82
2022/11/23 06:39:15;;;;;;;0.95;0.55;;;10.00;99.90;;;;;;5075794;28;20513;-82
2022/11/23 06:41:40;;;;;;;0.60;0.60;;;10.00;99.90;;;;;;5074723;28;20032;-82
2022/11/23 06:44:06;;;;;;;0.63;0.63;;;10.00;99.90;;;;;;5075923;28;20609;-82
2022/11/23 06:46:32;;;;;;;1.60;0.57;;;10.00;99.90;;;;;;5073387;28;20551;-81
2022/11/23 06:48:58;;;;;;;0.65;0.65;;;10.00;99.90;;;;;;5092836;28;20025;-82
2022/11/23 06:51:23;;;;;;;0.70;0.60;;;10.00;99.90;;;;;;5093067;28;20504;-82
2022/11/23 06:53:49;;;;;;;1.45;0.80;;;10.00;99.90;;;;;;5078461;28;20544;-82
2022/11/23 06:56:15;;;;;;;0.80;0.80;;;10.00;99.90;;;;;;5072419;28;20540;-82
2022/11/23 06:58:41;;;;;;;0.85;0.80;;;10.00;99.90;;;;;;5073511;28;20025;-81
2022/11/23 07:01:08;;;;;;;1.55;1.00;;;10.00;99.90;;;;;;5072414;28;20025;-82
2022/11/23 07:03:34;;;;;;;1.38;1.25;;;10.00;99.90;;;;;;5077879;28;20055;-82
2022/11/23 07:06:08;;;;;;;0.90;0.90;;;10.00;99.90;;;;;;5072101;28;20025;-82
2022/11/23 07:08:35;;;;;;;1.52;1.20;;;10.00;99.90;;;;;;5093042;28;20024;-82
2022/11/23 07:11:02;;;;;;;1.20;1.05;;;10.10;99.90;;;;;;5070320;28;20118;-82
2022/11/23 07:13:28;;;;;;;1.10;1.00;;;10.00;99.90;;;;;;5082760;28;20082;-82
2022/11/23 07:15:55;;;;;;;0.85;0.85;;;10.00;99.90;;;;;;5076233;28;20440;-81
2022/11/23 07:18:21;;;;;;;1.20;1.10;;;10.00;99.90;;;;;;5081026;28;20059;-81
2022/11/23 07:20:47;;;;;;;1.02;0.93;;;10.00;99.90;;;;;;5071671;28;20502;-82
2022/11/23 07:23:12;;;;;;;1.20;1.00;;;10.00;99.90;;;;;;5079716;28;20040;-81
2022/11/23 07:25:38;;;;;;;1.83;1.00;;;10.10;99.90;;;;;;5070551;28;20059;-84
2022/11/23 07:28:06;;;;;;;1.95;0.98;;;10.10;99.90;;;;;;5086557;28;20547;-84
2022/11/23 07:30:32;;;;;;;2.00;1.35;;;10.10;99.90;;;;;;5074486;28;20016;-83
2022/11/23 07:33:00;;;;;;;1.23;1.13;;;10.10;99.90;;;;;;5083446;28;20032;-84
2022/11/23 07:35:25;;;;;;;1.17;1.00;;;10.10;99.90;;;;;;5074182;28;20536;-83
2022/11/23 07:37:51;;;;;;;1.73;1.63;;;10.10;99.90;;;;;;5087117;28;20024;-83
2022/11/23 07:40:17;;;;;;;1.40;1.30;;;10.10;99.90;;;;;;5077873;28;20707;-81
2022/11/23 07:42:43;;;;;;;0.90;0.90;;;10.10;99.90;;;;;;5086508;28;20149;-81
2022/11/23 07:45:09;;;;;;;1.50;0.90;;;10.20;99.90;;;;;;5075127;28;20103;-82
2022/11/23 07:47:35;;;;;;;1.73;1.17;;;10.20;99.90;;;;;;5095493;28;20039;-81
2022/11/23 07:50:01;;;;;;;1.25;0.90;;;10.20;99.90;;;;;;5088037;28;20054;-81
2022/11/23 07:52:27;;;;;;;1.00;0.98;;;10.20;99.90;;;;;;5080740;28;20024;-81
2022/11/23 07:54:52;;;;;;;1.50;1.10;;;10.20;99.90;;;;;;5071769;28;20567;-83
2022/11/23 07:57:18;;;;;;;1.02;0.93;;;10.20;99.90;;;;;;5087815;28;20107;-82
2022/11/23 07:59:43;;;;;;;1.00;0.90;;;10.20;99.90;;;;;;5076698;28;20060;-85
2022/11/23 08:02:13;;;;;;;1.13;1.02;;;10.20;99.90;;;;;;5081755;28;20493;-84
2022/11/23 08:04:38;;;;;;;1.00;0.90;;;10.20;99.90;;;;;;5077970;28;20039;-84
2022/11/23 08:07:04;;;;;;;1.20;0.90;;;10.20;99.90;;;;;;5073520;28;20424;-84
2022/11/23 08:09:30;;;;;;;0.80;0.80;;;10.30;99.90;;;;;;5073162;28;20080;-84
2022/11/23 08:11:56;;;;;;;2.75;0.90;;;10.30;99.90;;;;;;5073409;28;20028;-83
2022/11/23 08:14:22;;;;;;;1.35;0.88;;;10.30;99.90;;;;;;5070695;28;20131;-81
2022/11/23 08:16:49;;;;;;;1.27;0.93;;;10.30;99.90;;;;;;5074292;28;20078;-81
2022/11/23 08:19:16;;;;;;;1.83;1.02;;;10.30;99.90;;;;;;5076851;28;20100;-81
2022/11/23 08:21:41;;;;;;;1.67;1.25;;;10.40;99.90;;;;;;5089354;28;20047;-82
2022/11/23 08:24:07;;;;;;;2.15;1.20;;;10.30;99.90;;;;;;5077814;28;20517;-82
2022/11/23 08:26:33;;;;;;;1.25;1.15;;;10.40;99.90;;;;;;5073539;28;20023;-82
2022/11/23 08:28:59;;;;;;;1.27;1.00;;;10.40;99.90;;;;;;5077785;28;20474;-81
2022/11/23 08:31:24;;;;;;;1.70;1.00;;;10.40;99.90;;;;;;5075590;28;20482;-81
2022/11/23 08:33:50;;;;;;;0.80;0.80;;;10.50;99.90;;;;;;5083056;28;20405;-80
2022/11/23 08:36:16;;;;;;;1.20;0.95;;;10.40;99.90;;;;;;5070477;28;20498;-82
2022/11/23 08:38:41;;;;;;;0.82;0.82;;;10.50;99.90;;;;;;5078146;28;20028;-82
2022/11/23 08:41:08;;;;;;;2.00;1.05;;;10.50;99.90;;;;;;5070338;28;20055;-82
2022/11/23 08:43:34;;;;;;;1.08;0.90;;;10.50;99.90;;;;;;5078026;28;20170;-82
2022/11/23 08:46:01;;;;;;;1.13;1.00;;;10.50;99.90;;;;;;5075413;28;20146;-82
2022/11/23 08:48:27;;;;;;;1.45;0.93;;;10.60;99.90;;;;;;5088236;28;20107;-83
2022/11/23 08:50:53;;;;;;;1.00;0.82;;;10.60;99.90;;;;;;5070883;28;20088;-82
2022/11/23 08:53:19;;;;;;;1.48;0.85;;;10.60;99.90;;;;;;5087111;28;20058;-82
2022/11/23 08:55:45;;;;;;;1.27;0.98;;;10.70;99.90;;;;;;5070557;28;20051;-82
2022/11/23 08:58:11;;;;;;;2.15;1.02;;;10.70;99.90;;;;;;5071837;28;20032;-82
2022/11/23 09:00:37;;;;;;;1.02;0.80;;;10.80;99.90;;;;;;5069554;28;20036;-83
2022/11/23 09:03:02;;;;;;;2.83;0.90;;;10.80;99.90;;;;;;5072118;28;20124;-83
2022/11/23 09:05:29;;;;;;;1.27;0.60;;;10.80;99.90;;;;;;5069469;28;20052;-82
2022/11/23 09:07:58;;;;;;;0.52;0.52;;;10.90;99.90;;;;;;5071611;28;20039;-82
2022/11/23 09:10:24;;;;;;;0.70;0.70;;;11.00;99.90;;;;;;5070106;28;20086;-83
2022/11/23 09:12:50;;;;;;;0.60;0.60;;;11.00;99.90;;;;;;5081727;28;20486;-82
2022/11/23 09:15:17;;;;;;;1.25;0.93;;;11.10;99.90;;;;;;5070369;28;20028;-82
2022/11/23 09:17:43;;;;;;;1.48;0.70;;;11.10;99.90;;;;;;5082944;28;20141;-83
2022/11/23 09:20:09;;;;;;;1.30;0.63;;;11.10;99.90;;;;;;5070409;28;20510;-82
2022/11/23 09:22:35;;;;;;;1.25;0.90;;;11.20;99.90;;;;;;5078448;28;20111;-83
2022/11/23 09:25:01;;;;;;;1.95;0.60;;;11.20;99.90;;;;;;5067581;28;20076;-83
2022/11/23 09:27:27;;;;;;;0.45;0.45;;;11.30;99.90;;;;;;5081999;28;20032;-82
2022/11/23 09:29:52;;;;;;;0.80;0.80;;;11.40;99.90;;;;;;5070461;28;20418;-82
2022/11/23 09:32:18;;;;;;;1.38;0.80;;;11.40;99.90;;;;;;5075923;28;20490;-83
2022/11/23 09:34:44;;;;;;;1.80;1.27;;;11.50;99.90;;;;;;5082081;28;20090;-83
2022/11/23 09:37:11;;;;;;;2.90;1.73;;;11.70;99.90;;;;;;5084645;28;20054;-83
2022/11/23 09:39:36;;;;;;;3.00;1.58;;;12.00;99.90;;;;;;5073687;28;20024;-83
2022/11/23 09:42:05;;;;;;;1.65;1.40;;;12.30;99.90;;;;;;5074517;28;20131;-83
2022/11/23 09:45:08;;;;;;;1.48;1.02;;;12.30;99.90;;;;;;5078741;28;20060;-82
2022/11/23 09:48:01;;;;;;;1.83;1.10;;;12.50;99.90;;;;;;5082618;28;20028;-83
2022/11/23 09:50:36;;;;;;;1.77;1.02;;;12.70;99.90;;;;;;5093671;28;20016;-83
2022/11/23 09:53:09;;;;;;;2.10;1.25;;;12.90;99.90;;;;;;5082721;28;20112;-82
2022/11/23 09:55:47;;;;;;;2.78;1.20;;;13.00;99.90;;;;;;5072819;28;20332;-82
2022/11/23 09:58:18;;;;;;;2.53;1.20;;;13.00;99.90;;;;;;5088419;28;20031;-82
2022/11/23 10:01:00;;;;;;;0.88;0.80;;;13.20;99.90;;;;;;5086683;28;20032;-83
2022/11/23 10:03:27;;;;;;;2.17;0.82;;;13.50;99.90;;;;;;5083079;28;20028;-83
2022/11/23 10:06:20;;;;;;;2.58;1.10;;;13.70;99.90;;;;;;5072094;28;20036;-82
2022/11/23 10:09:13;;;;;;;2.05;1.13;;;13.80;99.90;;;;;;5085407;28;20024;-82
2022/11/23 10:12:04;;;;;;;0.88;0.88;;;13.80;99.90;;;;;;5071036;28;20016;-83
2022/11/23 10:15:10;;;;;;;2.15;1.02;;;13.90;99.90;;;;;;5085289;28;20034;-83
2022/11/23 10:17:57;;;;;;;2.35;1.13;;;13.90;99.90;;;;;;5082390;28;20036;-83
2022/11/23 10:20:31;;;;;;;2.33;1.02;;;14.00;99.90;;;;;;5081694;28;20116;-83
2022/11/23 10:22:59;;;;;;;1.55;1.00;;;14.00;99.90;;;;;;5081060;28;20114;-84
2022/11/23 10:25:31;;;;;;;2.10;1.20;;;13.90;99.90;;;;;;5074633;28;20046;-83
2022/11/23 10:28:01;;;;;;;;;;;13.90;99.90;;;;;;5089136;28;20033;-83
2022/11/23 10:30:27;;;;;;;4.45;2.03;;;14.00;99.90;;;;;;5071591;28;19904;-83
2022/11/23 10:33:03;;;;;;;9.10;2.65;;;14.20;99.90;;;;;;5086121;28;20051;-83
2022/11/23 10:35:33;;;;;;;5.25;2.05;;;14.20;99.90;;;;;;5073129;28;20017;-83
2022/11/23 10:38:10;;;;;;;8.38;2.35;;;14.40;99.90;;;;;;5072837;28;20052;-82
2022/11/23 10:40:39;;;;;;;11.50;2.53;;;14.50;99.90;;;;;;5071390;28;20033;-83
2022/11/23 10:43:27;;;;;;;10.45;2.42;;;14.50;99.90;;;;;;5084327;28;20029;-82
2022/11/23 10:46:23;;;;;;;10.75;2.70;;;14.50;99.90;;;;;;5072320;28;20025;-83
2022/11/23 10:48:50;;;;;;;16.20;3.00;;;14.80;99.90;;;;;;5085950;28;20028;-83
2022/11/23 10:51:31;;;;;;;11.13;2.88;;;14.90;99.90;;;;;;5081074;28;20043;-83
2022/11/23 10:54:00;;;;;;;11.40;3.38;;;15.00;99.90;;;;;;5085387;28;20039;-83
2022/11/23 10:56:26;;;;;;;18.23;5.82;;;15.10;99.90;;;;;;5070788;28;20032;-83
2022/11/23 10:58:52;;;;;;;18.52;5.00;;;15.20;99.90;;;;;;5088352;28;20028;-83
2022/11/23 11:01:26;;;;;;;11.10;3.50;;;15.20;99.90;;;;;;5080801;28;20486;-83
2022/11/23 11:03:54;;;;;;;15.52;4.30;;;15.40;99.90;;;;;;5086305;28;20032;-84
2022/11/23 11:06:24;;;;;;;20.70;3.83;;;15.40;99.90;;;;;;5079176;28;20063;-83
2022/11/23 11:08:50;;;;;;;13.55;3.50;;;15.50;99.90;;;;;;5078958;28;20052;-83
2022/11/23 11:11:28;;;;;;;14.95;3.53;;;15.50;99.90;;;;;;5071771;28;20059;-84
2022/11/23 11:14:01;;;;;;;14.18;3.83;;;15.50;99.90;;;;;;5086479;28;20429;-84
2022/11/23 11:16:31;;;;;;;13.13;3.08;;;15.60;99.90;;;;;;5089003;28;20020;-84
2022/11/23 11:18:57;;;;;;;14.65;2.78;;;15.60;99.90;;;;;;5090192;28;20028;-84
2022/11/23 11:21:34;;;;;;;16.52;3.00;;;15.60;99.90;;;;;;5074126;28;20028;-84
2022/11/23 11:24:02;;;;;;;13.15;2.83;;;15.70;99.90;;;;;;5075495;28;20043;-83
2022/11/23 11:26:30;;;;;;;16.38;3.90;;;15.80;99.90;;;;;;5084978;28;20024;-83
2022/11/23 11:29:04;;;;;;;16.52;3.55;;;15.70;99.90;;;;;;5079626;28;20127;-83
2022/11/23 11:31:53;;;;;;;19.42;3.88;;;15.70;99.90;;;;;;5091330;28;20024;-83
2022/11/23 11:34:40;;;;;;;12.10;3.80;;;15.70;99.90;;;;;;5066667;28;20044;-82
2022/11/23 11:37:16;;;;;;;11.02;3.08;;;15.80;99.90;;;;;;5079727;28;20054;-83
2022/11/23 11:39:57;;;;;;;13.25;3.38;;;15.90;99.90;;;;;;5084050;28;20063;-83
2022/11/23 11:42:34;;;;;;;13.65;3.00;;;15.90;99.90;;;;;;5084450;28;20036;-83
2022/11/23 11:45:04;;;;;;;14.40;2.83;;;16.00;99.90;;;;;;5088804;28;20542;-83
2022/11/23 11:47:56;;;;;;;14.25;2.97;;;16.00;99.90;;;;;;5078420;28;20106;-84
2022/11/23 11:50:43;;;;;;;15.40;3.60;;;16.00;99.90;;;;;;5074364;28;20529;-84
2022/11/23 11:53:21;;;;;;;14.13;3.78;;;16.00;99.90;;;;;;5076305;28;20039;-84
2022/11/23 11:56:00;;;;;;;16.30;3.40;;;16.10;99.90;;;;;;5070681;28;20039;-84
2022/11/23 11:58:26;;;;;;;14.05;3.75;;;16.10;99.90;;;;;;5077436;28;20020;-84
2022/11/23 12:01:17;;;;;;;12.45;3.40;;;16.10;99.90;;;;;;5070976;28;20028;-85
2022/11/23 12:03:56;;;;;;;18.27;5.38;;;16.20;99.90;;;;;;5074447;28;20078;-84
2022/11/23 12:06:45;;;;;;;14.60;3.58;;;16.30;99.90;;;;;;5069556;28;20032;-84
2022/11/23 12:09:21;;;;;;;18.77;5.10;;;16.30;99.90;;;;;;5074780;28;20039;-84
2022/11/23 12:11:47;;;;;;;16.65;3.50;;;16.30;99.90;;;;;;5083684;28;20025;-84
2022/11/23 12:14:15;;;;;;;14.45;3.78;;;16.40;99.90;;;;;;5072254;28;20585;-84
2022/11/23 12:16:50;;;;;;;20.98;4.38;;;16.50;99.90;;;;;;5083719;28;20101;-84
2022/11/23 12:19:26;;;;;;;15.40;4.32;;;16.50;99.90;;;;;;5078080;28;20024;-83
2022/11/23 12:22:12;;;;;;;17.85;3.88;;;16.60;99.90;;;;;;5080652;28;20044;-82
2022/11/23 12:25:10;;;;;;;15.32;4.13;;;16.50;99.90;;;;;;5090400;28;20118;-82
2022/11/23 12:28:08;;;;;;;14.60;4.53;;;16.50;99.90;;;;;;5075502;28;20826;-82
2022/11/23 12:31:05;;;;;;;13.88;3.63;;;16.50;99.90;;;;;;5077854;28;20115;-83
2022/11/23 12:33:53;;;;;;;16.42;4.47;;;16.40;99.90;;;;;;5076787;28;20031;-83
2022/11/23 12:36:43;;;;;;;18.20;4.93;;;16.50;99.90;;;;;;5069581;28;20020;-83
2022/11/23 12:39:12;;;;;;;14.18;4.30;;;16.50;99.90;;;;;;5077597;28;20490;-83
2022/11/23 12:41:44;;;;;;;10.95;4.00;;;16.30;99.90;;;;;;5083883;28;20033;-83
2022/11/23 12:44:31;;;;;;;11.27;4.88;;;16.20;99.90;;;;;;5077975;28;20553;-83
2022/11/23 12:47:12;;;;;;;18.80;4.13;;;16.10;99.90;;;;;;5070525;28;20024;-84
2022/11/23 12:49:57;;;;;;;16.33;4.05;;;16.10;99.90;;;;;;5090433;28;20404;-83
2022/11/23 12:52:50;;;;;;;18.10;4.95;;;15.80;99.90;;;;;;5072622;28;20016;-84
2022/11/23 12:55:24;;;;;;;15.68;4.10;;;15.60;99.90;;;;;;5088254;28;20055;-83
2022/11/23 12:58:11;;;;;;;14.40;4.25;;;15.50;99.90;;;;;;5072793;28;20047;-83
2022/11/23 13:00:53;;;;;;;14.80;4.15;;;15.50;99.90;;;;;;5083892;28;20040;-84